地図

経路データ

SID SEASON NUMBER BASIN SUBBASIN NAME ISO_TIME NATURE LAT LON WMO_WIND WMO_PRES WMO_AGENCY TRACK_TYPE DIST2LAND LANDFALL IFLAG USA_AGENCY USA_ATCF_ID USA_LAT USA_LON USA_RECORD USA_STATUS USA_WIND USA_PRES USA_SSHS USA_R34_NE USA_R34_SE USA_R34_SW USA_R34_NW USA_R50_NE USA_R50_SE USA_R50_SW USA_R50_NW USA_R64_NE USA_R64_SE USA_R64_SW USA_R64_NW USA_POCI USA_ROCI USA_RMW USA_EYE TOKYO_LAT TOKYO_LON TOKYO_GRADE TOKYO_WIND TOKYO_PRES TOKYO_R50_DIR TOKYO_R50_LONG TOKYO_R50_SHORT TOKYO_R30_DIR TOKYO_R30_LONG TOKYO_R30_SHORT TOKYO_LAND CMA_LAT CMA_LON CMA_CAT CMA_WIND CMA_PRES HKO_LAT HKO_LON HKO_CAT HKO_WIND HKO_PRES NEWDELHI_LAT NEWDELHI_LON NEWDELHI_GRADE NEWDELHI_WIND NEWDELHI_PRES NEWDELHI_CI NEWDELHI_DP NEWDELHI_POCI REUNION_LAT REUNION_LON REUNION_TYPE REUNION_WIND REUNION_PRES REUNION_TNUM REUNION_CI REUNION_RMW REUNION_R34_NE REUNION_R34_SE REUNION_R34_SW REUNION_R34_NW REUNION_R50_NE REUNION_R50_SE REUNION_R50_SW REUNION_R50_NW REUNION_R64_NE REUNION_R64_SE REUNION_R64_SW REUNION_R64_NW BOM_LAT BOM_LON BOM_TYPE BOM_WIND BOM_PRES BOM_TNUM BOM_CI BOM_RMW BOM_R34_NE BOM_R34_SE BOM_R34_SW BOM_R34_NW BOM_R50_NE BOM_R50_SE BOM_R50_SW BOM_R50_NW BOM_R64_NE BOM_R64_SE BOM_R64_SW BOM_R64_NW BOM_ROCI BOM_POCI BOM_EYE BOM_POS_METHOD BOM_PRES_METHOD NADI_LAT NADI_LON NADI_CAT NADI_WIND NADI_PRES WELLINGTON_LAT WELLINGTON_LON WELLINGTON_WIND WELLINGTON_PRES DS824_LAT DS824_LON DS824_STAGE DS824_WIND DS824_PRES TD9636_LAT TD9636_LON TD9636_STAGE TD9636_WIND TD9636_PRES TD9635_LAT TD9635_LON TD9635_WIND TD9635_PRES TD9635_ROCI NEUMANN_LAT NEUMANN_LON NEUMANN_CLASS NEUMANN_WIND NEUMANN_PRES MLC_LAT MLC_LON MLC_CLASS MLC_WIND MLC_PRES USA_GUST BOM_GUST BOM_GUST_PER REUNION_GUST REUNION_GUST_PER USA_SEAHGT USA_SEARAD_NE USA_SEARAD_SE USA_SEARAD_SW USA_SEARAD_NW STORM_SPEED STORM_DIR
1906255N22089 1906 34 NI BB NOT_NAMED 1906-09-12 00:00:00 TS 21.9000 89.1000 main 0 0 _________O____ -1 21.9000 89.1000 TC 30 13 287
1906255N22089 1906 34 NI BB NOT_NAMED 1906-09-12 03:00:00 TS 22.1007 88.4071 main 0 0 _________PO___ -1 22.2010 88.0607 TC 30 21.9000 89.1000 1 16 287
1906255N22089 1906 34 NI BB NOT_NAMED 1906-09-12 06:00:00 TS 22.3817 87.4075 main 0 0 _________OP___ -1 22.5000 87.0000 TC 30 22.2042 88.0188 1 20 287
1906255N22089 1906 34 NI BB NOT_NAMED 1906-09-12 09:00:00 TS 22.6729 86.3605 main 0 0 _________PP___ -1 22.7999 85.9198 TC 30 22.5037 86.9480 1 19 287
1906255N22089 1906 34 NI BB NOT_NAMED 1906-09-12 12:00:00 TS 22.9506 85.4017 main 0 0 _________OP___ -1 23.1000 84.9000 TC 30 22.8012 85.9033 1 18 288
1906255N22089 1906 34 NI BB NOT_NAMED 1906-09-12 15:00:00 TS 23.2495 84.4597 main 0 0 _________PO___ -1 23.3990 84.0195 TC 30 23.1000 84.9000 1 18 290
1906255N22089 1906 34 NI BB NOT_NAMED 1906-09-12 18:00:00 TS 23.5512 83.5757 main 0 0 _________OP___ -1 23.7000 83.2000 TC 30 23.4023 83.9514 1 17 291
1906255N22089 1906 34 NI BB NOT_NAMED 1906-09-12 21:00:00 TS 23.8566 82.6885 main 0 0 _________PP___ -1 24.0076 82.3125 TC 30 23.7056 83.0645 1 17 291
1906255N22089 1906 34 NI BB NOT_NAMED 1906-09-13 00:00:00 TS 24.1531 81.8727 main 0 0 _________OP___ -1 24.3000 81.5000 TC 30 24.0061 82.2453 1 15 292
1906255N22089 1906 34 NI BB NOT_NAMED 1906-09-13 03:00:00 TS 24.4246 81.1809 main 0 0 _________PO___ -1 24.5492 80.8618 TC 30 24.3000 81.5000 1 13 294
1906255N22089 1906 34 NI BB NOT_NAMED 1906-09-13 06:00:00 TS 24.6860 80.5571 main 0 0 _________OP___ -1 24.8000 80.3000 TC 30 24.5720 80.8143 1 12 296
1906255N22089 1906 34 NI BB NOT_NAMED 1906-09-13 09:00:00 TS 24.9661 79.9464 main 0 0 _________PP___ -1 25.0923 79.6924 TC 30 24.8400 80.2004 1 12 298
1906255N22089 1906 34 NI BB NOT_NAMED 1906-09-13 12:00:00 TS 25.2565 79.3681 main 0 0 _________OP___ -1 25.4000 79.1000 TC 30 25.1131 79.6363 1 12 300
1906255N22089 1906 34 NI BB NOT_NAMED 1906-09-13 15:00:00 TS 25.5461 78.8173 main 0 0 _________PO___ -1 25.6923 78.5346 TC 30 25.4000 79.1000 1 12 300
1906255N22089 1906 34 NI BB NOT_NAMED 1906-09-13 18:00:00 TS 25.8390 78.2580 main 0 0 _________OP___ -1 26.0000 78.0000 TC 30 25.6780 78.5161 1 12 301
1906255N22089 1906 34 NI AS NOT_NAMED 1906-09-13 21:00:00 TS 26.1475 77.7143 main 0 0 _________PP___ -1 26.3200 77.4697 TC 30 25.9750 77.9590 1 11 306
1906255N22089 1906 34 NI AS NOT_NAMED 1906-09-14 00:00:00 TS 26.5047 77.2237 main 0 0 _________OP___ -1 26.7000 77.0000 TC 30 26.3095 77.4474 1 11 314
1906255N22089 1906 34 NI AS NOT_NAMED 1906-09-14 03:00:00 TS 26.9349 76.8062 main 0 0 _________PO___ -1 27.1698 76.6123 TC 30 26.7000 77.0000 1 12 324
1906255N22089 1906 34 NI AS NOT_NAMED 1906-09-14 06:00:00 TS 27.4333 76.4573 main 0 0 _________OP___ -1 27.7000 76.3000 TC 30 27.1667 76.6147 1 12 331
1906255N22089 1906 34 NI AS NOT_NAMED 1906-09-14 09:00:00 TS 27.9695 76.1609 main 0 0 _________PP___ -1 28.2499 76.0273 TC 30 27.6891 76.2946 1 12 336
1906255N22089 1906 34 NI AS NOT_NAMED 1906-09-14 12:00:00 TS 28.5210 75.9136 main 0 0 _________OP___ -1 28.8000 75.8000 TC 30 28.2420 76.0272 1 12 339
1906255N22089 1906 34 NI AS NOT_NAMED 1906-09-14 15:00:00 TS 29.0500 75.6924 main 0 0 _________PO___ -1 29.3000 75.5847 TC 30 28.8000 75.8000 1 11 341
1906255N22089 1906 34 NI AS NOT_NAMED 1906-09-14 18:00:00 TS 29.5387 75.5151 main 0 0 _________OP___ -1 29.8000 75.4000 TC 30 29.3428 75.6014 1 11 344
1906255N22089 1906 34 NI AS NOT_NAMED 1906-09-14 21:00:00 TS 30.0572 75.3512 main 0 0 _________PP___ -1 30.3375 75.2429 TC 30 29.8703 75.4234 1 11 345
1906255N22089 1906 34 NI AS NOT_NAMED 1906-09-15 00:00:00 TS 30.5585 75.2058 main 0 0 _________OP___ -1 30.9000 75.1000 TC 30 30.3878 75.2587 1 9 346
1906255N22089 1906 34 NI AS NOT_NAMED 1906-09-15 03:00:00 NR 30.9000 75.1000 main 0 __________O___ -1 TC 30.9000 75.1000 1 7 346

IBTrACS Databaseについて

本データベースは、米国NOAAが公開する1842年以降の世界の熱帯低気圧のベストトラックデータアーカイブInternational Best Track Archive for Climate Stewardship (IBTrACS)を、ウェブで閲覧しやすい形式に変換したものです。

最終更新日:2021-10-21